Airport View

Enter AWOS ICAO identifier for current METAR.

ex. KFNL

KGPC 250235Z AUTO 00000KT 7SM OVC120 20/18 A3001 RMK AO2 T01980184

25 May 2020 02:56

Frequency: 118.125

Phone: 765-653-1789

Other Area AWOS: KCFJ - KIND - KHUF - KEYE

TAF AMD KIND 250200Z 2502/2606 VRB06KT P6SM VCSH SCT040 BKN100 FM250300 17006KT P6SM SCT080 BKN150 FM250900 VRB04KT P6SM SCT200 FM251800 19008KT P6SM VCTS SCT040CB BKN200